Northwest Alabama Regional Airport Muscle Shoals US
ICAO: KMSL
IATA: MSL
Category: Medium
Scheduled Services: Yes

Elevation: 551 ft
TransAlt. 18000 ft.

Airport Communications:
ASOS:119.425
MEMPHIS CNTR:120.8
ANNISTON RDO:122.2
CTAF/UNICOM:123.05

KMSL Zoom In..

If you have problems with the map follow the link
https://www.worldairports.se/pages/airport.php?
ICAO=KMSL

Runways:

(A) RW 11 length 6694 ft width 150 ft
---- / hdg 114

(B) RW 18 length 4000 ft width 100 ft
---- / hdg 181

(C) RW 29 length 6694 ft width 150 ft
ILS 109.70 / hdg 294

(D) RW 36 length 4000 ft width 100 ft
---- / hdg 1

Location; KMSL
Day. 18 / Time. 07.53 Zulu
* Altimeter: 30.39
* Temperature: 13° c. 55.4°f.
* Wind from: 050° Speed 07 kn.
Dewpoint: 06° c.
Visibility: 10 Statute Miles.
Clouds: Clear (automated report).

KMSL 180753Z AUTO 05007KT 10SM CLR 13/06 A3039 RMK AO2 SLP287 T01280056


Wind From 050°
Speed 07 kn.

 
 
jpsmedia.com for Web Design worldairports.se 2018   terms of use